Česky Dansk Deutsch English Español Suomi Français Magyar Italiano Nederlands norsk Polski Português svenska Türkçe

 

Het Weer

Krems-Langenlois (Oostenrijk)

07:00, 1 augustus 2013 (GMT)

NWNNE
WE
SWSSE
Home            
Krems-Langenlois Tulln Niederosterreich / Lugplatz Voslau Wien / Schwechat-Flughafen Niederosterreich / Wiener Neustadt-Ost Flugplatz Oberosterreich / Freistadt Flugplatz Linz / Hoersching-Flughafen Horsching Aus-Afb Brno / Turany Bratislava Ivanka Wels Kunovice Szombathely Aigen Im Ennstal Punitz-Gussing Zeltweg Graz-Thalerhof-Flughafen Piestany Piestany Holesov Nitra Papa Murska Sobota

Om een weerknop op uw website of weblog te plaatsen, copieer onderstaande code en plak die in uw pagina. In het eerste vakje staat HTML-code, in het tweede vakje UBB-code.


Add to Google

Details

Wind speed:3 bf, 9 kn, 4.6 m/s, 10.4 miles/h, 16.7 km/h
Wind direction:NNW, 330°
Temperature:23°C, 73°F
Gefühlte Temperatur:25°C, 77°F
Dew-point:13°C, 55°F
Atmospheric pressure:1022 hPa, 766.6 mmHg, 30.18 inHg, 1.009 atm
Relative humidity:53.3 %
METAR:LOAG 010700Z 33009KT 45KM FEW050CU 23/13 Q1022 RMK FEW

Snelkoppelingen

Actuele weersinformatie van de hele wereld. Voeg locaties toe met het plus (+) symbool. Deze snelkoppelingen kunnen worden toegevoegd aan Google.

Lid van de Technetium groep

website free tracking
StatCounter NetStat W3C Validator

07-03-2021 04:03:38
astro.technetium.be money.technetium.be phote.technetium.be tafeltennistafel.technetium.be www.ligfiets.net